Terminal Aerodrome Forecast
Issued by NWS

Home | Current Version | Previous Version | Text Only | Print | Product List | Glossary On
Versions: 1 2 3 4 5 6 7 8 9 10 11 12 13 14 15 16 17 18 19 20 21 22 23 24 25 26
000
FTUS41 KBGM 302233 AAB
TAFELM
TAF AMD
KELM 302233Z 3023/3118 VRB03KT P6SM SCT005 OVC050
      TEMPO 3023/3101 3SM -SN BR BKN008 OVC025
     FM310100 12006KT 3SM -RA OVC015
      TEMPO 3101/3103 2SM -SNRA BR OVC008
     FM310700 15010KT 3SM -RA OVC010
     FM311300 15012G21KT 5SM -RA OVC015=

USA.gov is the U.S. government's official web portal to all federal, state and local government web resources and services.